Time;durP1;ratioP1;P1;durP2;ratioP2;P2;SDS_P1;SDS_P2;PMS_P1;PMS_P2;Temp;Humidity;BMP_temperature;BMP_pressure;BME280_temperature;BME280_humidity;BME280_pressure;Samples;Min_cycle;Max_cycle;Signal;HPM_P1;HPM_P2
2022/06/10 00:00:03;;;;;;;7.82;2.60;;;13.00;99.90;;;;;;5008894;28;20281;-64
2022/06/10 00:02:30;;;;;;;4.15;2.15;;;12.80;99.90;;;;;;5006147;28;20207;-64
2022/06/10 00:04:57;;;;;;;3.67;2.50;;;12.80;99.90;;;;;;5006099;28;20209;-64
2022/06/10 00:07:27;;;;;;;5.07;2.15;;;12.80;99.90;;;;;;5014128;28;20210;-64
2022/06/10 00:09:53;;;;;;;4.97;2.40;;;12.80;99.90;;;;;;5010807;28;20202;-64
2022/06/10 00:12:21;;;;;;;3.47;2.50;;;12.70;99.90;;;;;;4994537;28;20206;-64
2022/06/10 00:14:48;;;;;;;5.70;2.55;;;12.70;99.90;;;;;;5000052;28;20202;-64
2022/06/10 00:17:17;;;;;;;5.15;2.47;;;12.80;99.90;;;;;;5012274;28;20194;-64
2022/06/10 00:19:44;;;;;;;3.75;2.58;;;12.80;99.90;;;;;;4994052;28;20210;-63
2022/06/10 00:22:11;;;;;;;5.93;2.40;;;12.90;99.90;;;;;;5010652;28;20208;-64
2022/06/10 00:24:38;;;;;;;5.93;2.47;;;12.80;99.90;;;;;;5001374;28;20236;-64
2022/06/10 00:27:05;;;;;;;3.25;2.58;;;12.80;99.90;;;;;;4993447;28;20320;-64
2022/06/10 00:29:32;;;;;;;4.95;2.67;;;12.70;99.90;;;;;;4994629;28;20197;-64
2022/06/10 00:32:00;;;;;;;4.20;2.80;;;12.70;99.90;;;;;;5007205;28;20216;-64
2022/06/10 00:34:28;;;;;;;5.90;3.28;;;12.70;99.90;;;;;;4999688;28;20209;-64
2022/06/10 00:36:56;;;;;;;4.43;2.95;;;12.70;99.90;;;;;;5010607;28;20198;-63
2022/06/10 00:39:22;;;;;;;3.33;3.00;;;12.90;99.90;;;;;;5015493;28;20252;-64
2022/06/10 00:41:49;;;;;;;6.53;3.63;;;12.80;99.90;;;;;;4977742;28;20217;-64
2022/06/10 00:44:35;;;;;;;6.15;3.28;;;12.70;99.90;;;;;;5012114;28;20237;-61
2022/06/10 00:47:03;;;;;;;3.38;2.78;;;12.90;99.90;;;;;;5008079;28;20202;-61
2022/06/10 00:49:32;;;;;;;5.55;2.53;;;12.60;99.90;;;;;;5000383;28;20201;-61
2022/06/10 00:51:59;;;;;;;3.30;2.70;;;12.60;99.90;;;;;;5012638;28;20385;-61
2022/06/10 00:54:36;;;;;;;3.72;2.92;;;12.50;99.90;;;;;;5003980;28;20198;-63
2022/06/10 00:57:07;;;;;;;4.82;2.90;;;12.10;99.90;;;;;;4998681;28;20552;-64
2022/06/10 00:59:40;;;;;;;3.65;3.13;;;12.10;99.90;;;;;;5013043;28;20195;-65
2022/06/10 01:02:11;;;;;;;7.18;3.45;;;12.30;99.90;;;;;;4986513;28;20213;-64
2022/06/10 01:04:40;;;;;;;6.00;3.25;;;12.30;99.90;;;;;;4999900;28;20230;-63
2022/06/10 01:07:08;;;;;;;5.47;3.33;;;12.30;99.90;;;;;;5003216;28;20206;-64
2022/06/10 01:09:36;;;;;;;5.68;3.75;;;12.40;99.90;;;;;;4993395;28;20206;-64
2022/06/10 01:12:25;;;;;;;5.10;3.38;;;12.40;99.90;;;;;;5002409;28;20203;-64
2022/06/10 01:15:11;;;;;;;7.55;3.67;;;12.40;99.90;;;;;;4990773;28;20214;-63
2022/06/10 01:17:49;;;;;;;4.70;3.50;;;12.50;99.90;;;;;;4998692;28;21022;-63
2022/06/10 01:20:28;;;;;;;4.25;3.22;;;12.60;99.90;;;;;;4998148;28;20232;-64
2022/06/10 01:23:29;;;;;;;6.50;3.35;;;12.40;99.90;;;;;;4993767;28;20210;-64
2022/06/10 01:27:47;;;;;;;5.28;3.42;;;12.60;99.90;;;;;;4989054;28;20213;-64
2022/06/10 01:29:55;;;;;;;3.65;3.00;;;12.40;99.90;;;;;;4978557;28;20251;-62
2022/06/10 01:32:29;;;;;;;5.35;3.40;;;12.50;99.90;;;;;;4994176;28;20233;-62
2022/06/10 01:35:07;;;;;;;3.70;3.40;;;12.60;99.90;;;;;;4998356;28;20674;-61
2022/06/10 01:37:40;;;;;;;6.40;3.83;;;12.50;99.90;;;;;;5007372;28;20194;-63
2022/06/10 01:40:20;;;;;;;6.90;4.05;;;12.50;99.90;;;;;;4995101;28;20198;-64
2022/06/10 01:42:53;;;;;;;6.05;3.67;;;12.40;99.90;;;;;;5011728;28;20583;-64
2022/06/10 01:45:28;;;;;;;6.05;3.30;;;12.40;99.90;;;;;;4991900;28;20324;-64
2022/06/10 01:48:02;;;;;;;4.35;3.42;;;12.40;99.90;;;;;;5003279;28;20206;-64
2022/06/10 01:50:38;;;;;;;6.63;3.55;;;12.20;99.90;;;;;;5001671;28;20209;-64
2022/06/10 01:53:11;;;;;;;4.40;3.67;;;12.40;99.90;;;;;;5007741;28;20202;-65
2022/06/10 01:55:45;;;;;;;5.13;3.80;;;12.40;99.90;;;;;;5008676;28;20205;-64
2022/06/10 01:58:17;;;;;;;4.75;3.47;;;12.40;99.90;;;;;;5008675;28;20331;-63
2022/06/10 02:00:47;;;;;;;4.25;3.42;;;12.40;99.90;;;;;;4995779;28;20210;-64
2022/06/10 02:03:21;;;;;;;4.05;3.38;;;12.30;99.90;;;;;;4999898;28;20210;-64
2022/06/10 02:05:53;;;;;;;8.52;3.38;;;12.30;99.90;;;;;;5001710;28;20259;-64
2022/06/10 02:08:27;;;;;;;6.22;3.33;;;12.30;99.90;;;;;;5009722;28;20205;-64
2022/06/10 02:11:00;;;;;;;4.28;3.22;;;12.30;99.90;;;;;;5012661;28;20683;-64
2022/06/10 02:13:30;;;;;;;7.40;3.85;;;12.30;99.90;;;;;;5012132;28;20264;-64
2022/06/10 02:16:02;;;;;;;5.30;3.22;;;12.40;99.90;;;;;;4996373;28;20681;-64
2022/06/10 02:18:34;;;;;;;8.02;3.40;;;12.50;99.90;;;;;;5002161;28;20730;-63
2022/06/10 02:21:06;;;;;;;5.65;3.22;;;12.40;99.90;;;;;;5010738;28;20564;-63
2022/06/10 02:23:37;;;;;;;7.50;3.42;;;12.40;99.90;;;;;;4994608;28;20218;-64
2022/06/10 02:26:06;;;;;;;5.18;3.30;;;12.40;99.90;;;;;;5009169;28;20206;-63
2022/06/10 02:28:37;;;;;;;5.53;3.95;;;12.40;99.90;;;;;;5000517;28;20232;-63
2022/06/10 02:31:08;;;;;;;7.55;3.22;;;12.20;99.90;;;;;;5007109;28;20206;-64
2022/06/10 02:33:37;;;;;;;5.40;3.00;;;12.40;99.90;;;;;;4994128;28;21056;-64
2022/06/10 02:36:11;;;;;;;6.50;3.40;;;12.40;99.90;;;;;;5007450;28;20202;-64
2022/06/10 02:38:48;;;;;;;7.20;3.05;;;12.60;99.90;;;;;;5009416;28;20198;-64
2022/06/10 02:41:21;;;;;;;5.30;3.20;;;12.40;99.90;;;;;;5010222;28;20848;-64
2022/06/10 02:44:03;;;;;;;9.38;3.40;;;12.30;99.90;;;;;;5013042;28;20308;-63
2022/06/10 02:46:36;;;;;;;5.47;3.40;;;12.30;99.90;;;;;;4971540;28;21082;-64
2022/06/10 02:49:08;;;;;;;6.35;3.40;;;12.30;99.90;;;;;;4994389;28;20217;-64
2022/06/10 02:51:36;;;;;;;5.35;3.20;;;12.20;99.90;;;;;;4988437;28;20205;-64
2022/06/10 02:54:05;;;;;;;4.45;2.97;;;12.20;99.90;;;;;;5013417;28;20225;-64
2022/06/10 02:56:32;;;;;;;8.10;3.40;;;12.20;99.90;;;;;;4997687;28;20679;-64
2022/06/10 03:02:07;;;;;;;5.65;3.40;;;12.00;99.90;;;;;;4978303;28;20304;-64
2022/06/10 03:04:44;;;;;;;7.43;3.30;;;12.40;99.90;;;;;;4991870;28;20236;-64
2022/06/10 03:07:22;;;;;;;10.63;3.40;;;12.30;99.90;;;;;;5005381;28;20559;-64
2022/06/10 03:10:03;;;;;;;7.30;3.22;;;12.20;99.90;;;;;;5010088;28;20598;-64
2022/06/10 03:12:36;;;;;;;7.57;3.60;;;12.20;99.90;;;;;;5010577;28;20210;-63
2022/06/10 03:15:29;;;;;;;5.60;3.33;;;12.30;99.90;;;;;;5003691;28;20691;-64
2022/06/10 03:18:02;;;;;;;5.75;3.47;;;12.20;99.90;;;;;;4979580;28;20602;-64
2022/06/10 03:20:38;;;;;;;4.15;3.22;;;12.30;99.90;;;;;;4997412;28;20202;-64
2022/06/10 03:23:15;;;;;;;4.75;2.92;;;12.30;99.90;;;;;;4997858;28;20201;-63
2022/06/10 03:25:48;;;;;;;6.38;3.63;;;12.30;99.90;;;;;;5005343;28;20237;-64
2022/06/10 03:28:24;;;;;;;7.07;3.13;;;12.30;99.90;;;;;;5011616;28;20312;-63
2022/06/10 03:30:56;;;;;;;14.02;2.85;;;12.30;99.90;;;;;;4991919;28;20201;-64
2022/06/10 03:33:29;;;;;;;4.25;2.78;;;12.20;99.90;;;;;;4983699;28;20894;-64
2022/06/10 03:36:03;;;;;;;4.85;3.00;;;12.20;99.90;;;;;;4995299;28;20692;-64
2022/06/10 03:38:32;;;;;;;7.30;3.20;;;12.20;99.90;;;;;;4999882;28;20206;-64
2022/06/10 03:41:02;;;;;;;15.15;3.53;;;12.10;99.90;;;;;;4990738;28;20206;-64
2022/06/10 03:43:34;;;;;;;8.73;2.88;;;12.10;99.90;;;;;;5011748;28;20225;-64
2022/06/10 03:46:07;;;;;;;13.40;3.20;;;12.10;99.90;;;;;;5011077;28;20195;-64
2022/06/10 03:48:38;;;;;;;10.38;3.00;;;12.00;99.90;;;;;;4993406;28;20221;-63
2022/06/10 03:51:09;;;;;;;5.97;3.05;;;12.10;99.90;;;;;;4974154;28;20916;-64
2022/06/10 03:53:36;;;;;;;6.93;2.97;;;12.20;99.90;;;;;;4982506;28;20206;-64
2022/06/10 03:56:03;;;;;;;6.97;2.92;;;12.20;99.90;;;;;;4993190;28;20217;-63
2022/06/10 03:58:30;;;;;;;7.95;2.65;;;12.30;99.90;;;;;;4989944;28;20218;-63
2022/06/10 04:00:58;;;;;;;7.95;3.08;;;12.30;99.90;;;;;;5009612;28;20197;-64
2022/06/10 04:03:27;;;;;;;6.55;2.78;;;12.30;99.90;;;;;;4998192;28;20683;-63
2022/06/10 04:05:53;;;;;;;23.85;3.10;;;12.30;99.90;;;;;;4978689;28;20233;-64
2022/06/10 04:08:22;;;;;;;8.63;3.13;;;12.40;99.90;;;;;;5003214;28;20214;-64
2022/06/10 04:10:49;;;;;;;5.97;2.55;;;12.50;99.90;;;;;;4988424;28;20206;-64
2022/06/10 04:13:17;;;;;;;6.28;2.72;;;12.50;99.90;;;;;;4997999;28;20202;-64
2022/06/10 04:15:44;;;;;;;8.07;2.50;;;12.50;99.90;;;;;;5007554;28;20194;-64
2022/06/10 04:18:12;;;;;;;5.57;2.85;;;12.50;99.90;;;;;;5001275;28;20202;-64
2022/06/10 04:20:41;;;;;;;5.35;2.90;;;12.60;99.90;;;;;;4988223;28;20210;-64
2022/06/10 04:23:08;;;;;;;5.65;2.47;;;12.60;99.90;;;;;;5004337;28;20206;-64
2022/06/10 04:25:38;;;;;;;7.97;3.05;;;12.60;99.90;;;;;;4992723;28;20241;-63
2022/06/10 04:28:06;;;;;;;6.18;2.97;;;12.60;99.90;;;;;;4992082;28;20230;-63
2022/06/10 04:30:36;;;;;;;7.03;3.13;;;12.70;99.90;;;;;;5010800;28;20245;-63
2022/06/10 04:33:04;;;;;;;8.25;3.05;;;12.80;99.90;;;;;;4993089;28;20202;-63
2022/06/10 04:35:32;;;;;;;12.63;3.03;;;12.90;99.90;;;;;;4990919;28;20217;-63
2022/06/10 04:37:59;;;;;;;6.20;2.67;;;12.90;99.90;;;;;;4994454;28;20203;-63
2022/06/10 04:40:28;;;;;;;5.35;2.47;;;14.00;99.90;;;;;;4978890;28;20564;-63
2022/06/10 04:42:58;;;;;;;7.20;2.95;;;13.00;99.90;;;;;;5008163;28;20209;-64
2022/06/10 04:45:28;;;;;;;7.80;2.70;;;13.20;99.90;;;;;;5000765;28;20265;-63
2022/06/10 04:47:55;;;;;;;5.60;2.80;;;13.10;99.90;;;;;;4986624;28;20210;-64
2022/06/10 04:50:25;;;;;;;8.88;3.15;;;13.10;99.90;;;;;;5003153;28;20202;-64
2022/06/10 04:52:53;;;;;;;8.00;2.80;;;13.30;99.90;;;;;;4977298;28;20214;-63
2022/06/10 04:55:20;;;;;;;6.13;2.85;;;13.20;99.90;;;;;;4989666;28;20206;-63
2022/06/10 04:57:47;;;;;;;6.97;2.83;;;13.30;99.90;;;;;;4986288;28;20219;-63
2022/06/10 05:00:20;;;;;;;3.72;2.50;;;13.40;99.90;;;;;;4996843;28;20416;-64
2022/06/10 05:02:47;;;;;;;5.03;2.70;;;13.40;99.90;;;;;;4986262;28;21109;-63
2022/06/10 05:05:14;;;;;;;9.38;3.28;;;13.40;99.90;;;;;;5011396;28;20238;-63
2022/06/10 05:07:41;;;;;;;4.28;2.85;;;13.50;99.90;;;;;;4976354;28;20212;-64
2022/06/10 05:10:09;;;;;;;6.55;3.30;;;13.60;99.90;;;;;;5000867;28;20225;-64
2022/06/10 05:12:35;;;;;;;5.40;3.10;;;13.70;99.90;;;;;;5007292;28;20225;-63
2022/06/10 05:15:02;;;;;;;5.75;3.08;;;13.70;99.90;;;;;;5014786;28;20535;-64
2022/06/10 05:17:31;;;;;;;9.68;3.47;;;13.80;99.90;;;;;;4987335;28;20241;-64
2022/06/10 05:19:57;;;;;;;7.20;3.35;;;13.70;99.90;;;;;;5012398;28;20572;-63
2022/06/10 05:22:24;;;;;;;9.98;3.17;;;13.90;99.90;;;;;;4981879;28;20920;-64
2022/06/10 05:24:51;;;;;;;7.22;3.55;;;14.00;99.90;;;;;;4985088;28;20231;-64
2022/06/10 05:27:18;;;;;;;6.07;3.30;;;14.10;99.90;;;;;;4997752;28;20233;-64
2022/06/10 05:29:44;;;;;;;8.90;3.30;;;14.10;99.90;;;;;;5012291;28;20197;-65
2022/06/10 05:32:11;;;;;;;7.07;4.35;;;14.00;99.90;;;;;;5011906;28;20226;-64
2022/06/10 05:34:45;;;;;;;7.63;3.17;;;14.20;99.90;;;;;;5000672;28;21203;-64
2022/06/10 05:37:16;;;;;;;4.85;3.55;;;14.30;99.90;;;;;;4975983;28;20225;-64
2022/06/10 05:39:45;;;;;;;9.80;3.42;;;14.30;99.90;;;;;;4997195;28;20309;-63
2022/06/10 05:42:13;;;;;;;7.25;3.20;;;14.40;99.90;;;;;;4999084;28;20608;-63
2022/06/10 05:44:42;;;;;;;5.88;3.25;;;14.40;99.90;;;;;;5006774;28;20256;-63
2022/06/10 05:47:11;;;;;;;5.30;3.10;;;14.50;99.90;;;;;;5001715;28;20217;-64
2022/06/10 05:49:49;;;;;;;7.88;2.83;;;14.50;99.90;;;;;;5002690;28;20213;-61
2022/06/10 05:52:18;;;;;;;4.38;2.60;;;14.60;99.90;;;;;;4996884;28;20198;-63
2022/06/10 05:54:47;;;;;;;5.43;2.78;;;13.40;99.90;;;;;;5014418;28;20279;-63
2022/06/10 05:57:15;;;;;;;7.03;2.92;;;14.80;99.90;;;;;;4991554;28;20210;-64
2022/06/10 05:59:42;;;;;;;8.98;2.88;;;14.70;99.90;;;;;;5016600;28;20202;-64
2022/06/10 06:02:13;;;;;;;6.47;2.55;;;14.80;99.90;;;;;;5010576;28;20226;-64
2022/06/10 06:04:42;;;;;;;8.63;2.92;;;14.90;99.90;;;;;;5003461;28;21121;-63
2022/06/10 06:07:09;;;;;;;5.50;2.30;;;14.90;99.90;;;;;;5000911;28;20199;-64
2022/06/10 06:09:36;;;;;;;5.47;2.97;;;14.90;99.90;;;;;;5005763;28;20222;-64
2022/06/10 06:12:04;;;;;;;5.32;2.50;;;15.00;99.90;;;;;;5000271;28;20202;-64
2022/06/10 06:14:32;;;;;;;5.68;2.60;;;13.80;99.90;;;;;;5010506;28;20248;-64
2022/06/10 06:17:01;;;;;;;8.45;2.80;;;15.10;99.90;;;;;;5017261;28;20206;-64
2022/06/10 06:19:29;;;;;;;7.03;2.22;;;15.20;99.90;;;;;;4981626;28;20670;-64
2022/06/10 06:21:58;;;;;;;3.58;2.20;;;15.40;99.90;;;;;;5009280;28;20198;-63
2022/06/10 06:24:25;;;;;;;12.55;2.92;;;15.80;99.90;;;;;;4975639;28;20431;-64
2022/06/10 06:26:52;;;;;;;8.18;2.67;;;15.30;99.90;;;;;;5007821;28;20256;-63
2022/06/10 06:29:19;;;;;;;9.85;2.72;;;15.40;99.90;;;;;;4993015;28;20194;-63
2022/06/10 06:31:46;;;;;;;5.07;2.35;;;15.40;99.90;;;;;;5009905;28;20682;-63
2022/06/10 06:34:14;;;;;;;6.00;2.63;;;15.40;99.90;;;;;;5000682;28;20857;-62
2022/06/10 06:36:45;;;;;;;5.35;2.65;;;15.50;99.90;;;;;;5007998;28;20209;-61
2022/06/10 06:39:13;;;;;;;7.47;2.83;;;15.40;99.90;;;;;;4983715;28;20207;-62
2022/06/10 06:41:40;;;;;;;5.70;2.78;;;15.60;99.90;;;;;;5006775;28;20228;-61
2022/06/10 06:44:07;;;;;;;7.63;2.90;;;15.70;99.90;;;;;;4993284;28;20311;-61
2022/06/10 06:46:36;;;;;;;8.15;3.00;;;15.70;99.90;;;;;;5007620;28;20461;-62
2022/06/10 06:49:05;;;;;;;8.65;2.30;;;15.70;99.90;;;;;;5008900;28;20589;-62
2022/06/10 06:51:32;;;;;;;9.52;2.35;;;15.70;99.90;;;;;;4990832;28;20323;-62
2022/06/10 06:54:01;;;;;;;6.30;2.25;;;15.80;99.90;;;;;;5004662;28;20590;-62
2022/06/10 06:56:29;;;;;;;8.35;2.35;;;15.90;99.90;;;;;;4986988;28;20311;-62
2022/06/10 06:58:56;;;;;;;8.10;2.58;;;15.80;99.90;;;;;;4995108;28;20214;-62
2022/06/10 07:01:23;;;;;;;7.57;2.25;;;16.10;99.90;;;;;;5006427;28;20499;-62
2022/06/10 07:03:50;;;;;;;6.68;2.20;;;16.00;99.90;;;;;;5012419;28;20213;-61
2022/06/10 07:06:17;;;;;;;8.57;2.15;;;16.00;99.90;;;;;;4992465;28;20222;-61
2022/06/10 07:08:44;;;;;;;5.90;1.83;;;16.20;99.90;;;;;;5011658;28;20229;-62
2022/06/10 07:11:10;;;;;;;10.43;2.60;;;16.10;99.90;;;;;;4975589;28;20202;-62
2022/06/10 07:13:39;;;;;;;4.63;2.20;;;16.20;99.90;;;;;;5009747;28;20198;-62
2022/06/10 07:16:08;;;;;;;4.45;1.52;;;16.20;99.90;;;;;;4971474;28;20329;-62
2022/06/10 07:18:35;;;;;;;6.20;2.08;;;16.30;99.90;;;;;;5013663;28;20727;-63
2022/06/10 07:21:02;;;;;;;5.07;2.30;;;15.80;99.90;;;;;;4996984;28;20210;-62
2022/06/10 07:23:29;;;;;;;5.68;2.25;;;16.40;99.90;;;;;;4993859;28;20214;-63
2022/06/10 07:25:56;;;;;;;18.98;2.40;;;17.90;99.90;;;;;;4980135;28;20233;-63
2022/06/10 07:28:23;;;;;;;4.10;2.05;;;16.40;99.90;;;;;;5009784;28;20232;-62
2022/06/10 07:30:52;;;;;;;4.13;2.33;;;16.40;99.90;;;;;;4995297;28;20213;-62
2022/06/10 07:33:18;;;;;;;7.32;2.15;;;16.50;99.90;;;;;;5011938;28;20497;-62
2022/06/10 07:35:45;;;;;;;5.93;2.15;;;16.50;99.90;;;;;;4993417;28;20197;-63
2022/06/10 07:38:13;;;;;;;7.90;2.25;;;16.70;99.90;;;;;;5008527;28;20206;-62
2022/06/10 07:43:30;;;;;;;5.93;2.05;;;16.80;99.90;;;;;;4998197;28;20228;-62
2022/06/10 07:45:59;;;;;;;8.07;2.05;;;16.70;99.90;;;;;;4993926;28;20225;-62
2022/06/10 07:48:26;;;;;;;6.13;2.05;;;16.70;99.90;;;;;;5006382;28;20205;-62
2022/06/10 07:50:53;;;;;;;6.15;1.70;;;16.80;99.90;;;;;;5007820;28;20214;-62
2022/06/10 07:53:20;;;;;;;4.85;1.70;;;16.80;99.90;;;;;;4989253;28;20198;-62
2022/06/10 07:55:48;;;;;;;6.65;2.15;;;17.00;99.90;;;;;;5008355;28;20198;-62
2022/06/10 07:58:17;;;;;;;6.75;2.30;;;16.90;99.90;;;;;;4988800;28;20214;-62
2022/06/10 08:00:44;;;;;;;7.18;2.15;;;17.00;99.90;;;;;;5012047;28;20676;-62
2022/06/10 08:03:13;;;;;;;7.90;2.25;;;17.00;99.90;;;;;;4994071;28;20210;-62
2022/06/10 08:05:40;;;;;;;9.07;2.55;;;17.10;99.90;;;;;;5007899;28;20337;-62
2022/06/10 08:08:08;;;;;;;11.73;2.42;;;17.10;99.90;;;;;;4993844;28;20198;-62
2022/06/10 08:10:37;;;;;;;4.00;1.92;;;17.20;99.90;;;;;;5010590;28;20453;-62
2022/06/10 08:13:05;;;;;;;10.20;2.22;;;17.20;99.90;;;;;;4987327;28;20210;-62
2022/06/10 08:15:33;;;;;;;5.90;1.75;;;17.10;99.90;;;;;;5008084;28;20319;-62
2022/06/10 08:18:00;;;;;;;5.30;1.92;;;17.20;99.90;;;;;;4995922;28;20203;-62
2022/06/10 08:23:12;;;;;;;6.03;2.00;;;17.40;99.90;;;;;;4969455;28;20206;-62
2022/06/10 08:25:39;;;;;;;7.38;2.13;;;17.40;99.90;;;;;;5009967;28;20460;-62
2022/06/10 08:28:06;;;;;;;5.78;2.53;;;17.40;99.90;;;;;;4990941;28;20226;-62
2022/06/10 08:30:33;;;;;;;9.98;2.58;;;17.40;99.90;;;;;;4990486;28;20322;-62
2022/06/10 08:33:03;;;;;;;6.07;2.05;;;17.50;99.90;;;;;;4996637;28;20210;-62
2022/06/10 08:35:31;;;;;;;5.90;2.75;;;17.50;99.90;;;;;;5006725;28;20328;-63
2022/06/10 08:37:58;;;;;;;6.35;2.50;;;17.50;99.90;;;;;;4993102;28;20209;-62
2022/06/10 08:40:33;;;;;;;4.75;2.35;;;17.50;99.90;;;;;;5007143;28;20380;-62
2022/06/10 08:43:04;;;;;;;5.32;2.00;;;17.70;99.90;;;;;;5009250;28;20565;-62
2022/06/10 08:45:36;;;;;;;8.18;2.20;;;17.80;99.90;;;;;;4981114;28;20265;-62
2022/06/10 08:48:13;;;;;;;9.88;2.72;;;17.90;99.90;;;;;;5007031;28;20202;-63
2022/06/10 08:51:13;;;;;;;8.73;2.15;;;17.80;99.90;;;;;;5005571;28;20926;-62
2022/06/10 08:53:58;;;;;;;6.00;1.85;;;17.90;99.90;;;;;;4993263;28;21101;-62
2022/06/10 08:56:31;;;;;;;8.57;1.90;;;18.00;99.90;;;;;;5003346;28;20202;-62
2022/06/10 08:59:02;;;;;;;6.13;1.75;;;18.00;99.90;;;;;;5004924;28;20198;-62
2022/06/10 09:01:35;;;;;;;12.85;3.70;;;18.10;99.90;;;;;;4983704;28;20703;-63
2022/06/10 09:04:11;;;;;;;5.78;1.77;;;18.30;99.90;;;;;;4997553;28;20222;-62
2022/06/10 09:06:45;;;;;;;10.20;1.98;;;18.60;99.90;;;;;;5009156;28;20229;-62
2022/06/10 09:09:15;;;;;;;4.05;1.75;;;18.50;99.90;;;;;;4996965;28;20325;-62
2022/06/10 09:11:49;;;;;;;4.28;1.63;;;18.50;99.90;;;;;;5010708;28;20205;-63
2022/06/10 09:14:18;;;;;;;6.60;1.60;;;18.50;99.90;;;;;;5008409;28;20194;-62
2022/06/10 09:16:51;;;;;;;6.75;1.55;;;18.60;99.90;;;;;;4974550;28;20202;-62
2022/06/10 09:19:30;;;;;;;4.95;2.60;;;18.50;99.90;;;;;;4991998;28;20789;-63
2022/06/10 09:22:06;;;;;;;5.35;1.80;;;18.70;99.90;;;;;;4994268;28;20284;-62
2022/06/10 09:24:38;;;;;;;5.80;2.08;;;18.70;99.90;;;;;;5000751;28;21191;-63
2022/06/10 09:27:10;;;;;;;10.50;3.15;;;18.70;99.90;;;;;;5010124;28;20253;-63
2022/06/10 09:29:38;;;;;;;5.70;2.55;;;18.80;99.90;;;;;;5012171;28;20222;-62
2022/06/10 09:32:10;;;;;;;12.40;2.97;;;18.80;99.90;;;;;;4993395;28;20742;-63
2022/06/10 09:34:49;;;;;;;11.00;2.67;;;18.80;99.90;;;;;;5000890;28;20205;-63
2022/06/10 09:37:29;;;;;;;3.22;2.33;;;18.80;99.90;;;;;;4996766;28;20722;-64
2022/06/10 09:43:07;;;;;;;7.45;2.80;;;18.70;99.90;;;;;;5011255;28;20217;-63
2022/06/10 09:45:39;;;;;;;4.45;2.33;;;18.70;99.90;;;;;;5010657;28;20290;-63
2022/06/10 09:48:28;;;;;;;7.53;1.92;;;18.70;99.90;;;;;;4993769;28;20249;-63
2022/06/10 09:51:03;;;;;;;3.10;1.73;;;18.70;99.90;;;;;;5002997;28;20206;-63
2022/06/10 09:53:52;;;;;;;3.28;1.80;;;18.60;99.90;;;;;;5006206;28;20423;-63
2022/06/10 09:56:41;;;;;;;3.28;1.65;;;18.70;99.90;;;;;;4999545;28;21341;-63
2022/06/10 09:59:18;;;;;;;5.57;1.60;;;18.60;99.90;;;;;;5009674;28;20739;-63
2022/06/10 10:01:53;;;;;;;3.67;1.92;;;18.80;99.90;;;;;;5017012;28;20198;-63
2022/06/10 10:04:46;;;;;;;4.13;1.80;;;18.80;99.90;;;;;;4996421;28;20202;-63
2022/06/10 10:07:21;;;;;;;8.88;2.35;;;18.80;99.90;;;;;;4993578;28;20237;-63
2022/06/10 10:10:01;;;;;;;7.22;2.35;;;18.80;99.90;;;;;;5021276;28;20209;-63
2022/06/10 10:12:40;;;;;;;4.97;2.20;;;18.80;99.90;;;;;;5004332;28;20664;-65
2022/06/10 10:15:21;;;;;;;5.05;1.83;;;18.80;99.90;;;;;;5016400;28;20200;-62
2022/06/10 10:18:20;;;;;;;7.47;2.63;;;18.90;99.90;;;;;;5019434;28;20862;-62
2022/06/10 10:21:02;;;;;;;8.05;2.30;;;18.90;99.90;;;;;;5019450;28;20198;-63
2022/06/10 10:23:33;;;;;;;7.60;2.40;;;18.90;99.90;;;;;;5001416;28;20556;-63
2022/06/10 10:26:02;;;;;;;8.63;3.13;;;19.00;99.90;;;;;;5016688;28;20671;-62
2022/06/10 10:28:33;;;;;;;7.55;2.83;;;19.10;99.90;;;;;;4990687;28;20255;-63
2022/06/10 10:31:09;;;;;;;2.72;2.00;;;19.10;99.90;;;;;;5017151;28;20202;-63
2022/06/10 10:33:36;;;;;;;7.53;2.67;;;19.20;99.90;;;;;;4994482;28;20579;-63
2022/06/10 10:36:11;;;;;;;4.03;2.25;;;19.20;99.90;;;;;;5013394;28;20946;-63
2022/06/10 10:38:41;;;;;;;4.50;2.35;;;19.10;99.90;;;;;;4986944;28;21058;-63
2022/06/10 10:41:30;;;;;;;4.25;1.98;;;18.30;99.90;;;;;;5012973;28;20680;-63
2022/06/10 10:44:02;;;;;;;5.68;2.70;;;19.10;99.90;;;;;;4986773;28;20936;-63
2022/06/10 10:46:34;;;;;;;5.88;2.50;;;19.20;99.90;;;;;;5005317;28;20226;-64
2022/06/10 10:49:05;;;;;;;6.43;1.95;;;19.20;99.90;;;;;;4992311;28;20229;-63
2022/06/10 10:51:37;;;;;;;5.55;2.50;;;19.40;99.90;;;;;;4999501;28;20197;-63
2022/06/10 10:54:12;;;;;;;2.65;2.45;;;19.30;99.90;;;;;;4997332;28;20229;-63
2022/06/10 10:56:43;;;;;;;6.82;2.80;;;19.50;99.90;;;;;;5007292;28;20213;-64
2022/06/10 10:59:34;;;;;;;2.67;2.20;;;19.70;99.90;;;;;;4975721;28;20211;-64
2022/06/10 11:02:02;;;;;;;4.05;2.40;;;19.70;99.90;;;;;;5004341;28;20208;-64
2022/06/10 11:04:32;;;;;;;3.22;2.25;;;19.40;99.90;;;;;;4986801;28;20233;-63
2022/06/10 11:07:04;;;;;;;4.65;2.40;;;19.40;99.90;;;;;;5000175;28;20229;-63
2022/06/10 11:09:31;;;;;;;3.22;2.53;;;19.30;99.90;;;;;;4999482;28;20206;-64
2022/06/10 11:12:04;;;;;;;6.18;2.28;;;18.90;99.90;;;;;;5012083;28;20201;-64
2022/06/10 11:14:34;;;;;;;5.32;2.72;;;18.90;99.90;;;;;;4996774;22;20222;-64
2022/06/10 11:17:17;;;;;;;3.53;2.92;;;18.90;99.90;;;;;;5029522;22;20328;-63
2022/06/10 11:19:48;;;;;;;6.65;3.30;;;17.80;99.90;;;;;;4983776;28;21085;-64
2022/06/10 11:22:25;;;;;;;6.85;3.15;;;18.70;99.90;;;;;;5050956;22;20722;-64
2022/06/10 11:24:55;;;;;;;4.35;3.17;;;18.70;99.90;;;;;;5010684;28;20252;-65
2022/06/10 11:27:29;;;;;;;4.18;3.08;;;18.80;99.90;;;;;;5020427;28;20236;-65
2022/06/10 11:30:00;;;;;;;5.57;3.30;;;18.90;99.90;;;;;;4995565;28;20697;-65
2022/06/10 11:32:30;;;;;;;7.07;3.25;;;19.00;99.90;;;;;;5021776;28;20194;-65
2022/06/10 11:35:02;;;;;;;8.32;2.83;;;19.20;99.90;;;;;;4996290;28;20210;-64
2022/06/10 11:37:34;;;;;;;3.70;2.50;;;19.20;99.90;;;;;;5030820;28;20308;-64
2022/06/10 11:40:11;;;;;;;6.82;2.97;;;22.30;99.90;;;;;;5244440;22;20229;-64
2022/06/10 11:42:45;;;;;;;4.50;2.95;;;19.20;99.90;;;;;;5004419;28;20201;-63
2022/06/10 11:45:18;;;;;;;6.30;3.25;;;19.20;99.90;;;;;;4996216;28;20706;-64
2022/06/10 11:47:50;;;;;;;6.43;2.85;;;19.40;99.90;;;;;;4989501;28;20237;-63
2022/06/10 11:50:23;;;;;;;14.50;3.72;;;19.00;99.90;;;;;;5006359;28;20670;-63
2022/06/10 11:52:55;;;;;;;5.25;3.13;;;19.40;99.90;;;;;;4983596;28;20210;-64
2022/06/10 11:55:28;;;;;;;8.55;3.10;;;19.40;99.90;;;;;;4997449;28;20198;-65
2022/06/10 12:00:50;;;;;;;12.07;3.42;;;19.10;99.90;;;;;;4972843;28;20256;-64
2022/06/10 12:03:22;;;;;;;3.67;3.20;;;18.90;99.90;;;;;;4989627;28;20205;-64
2022/06/10 12:05:55;;;;;;;9.43;3.45;;;18.90;99.90;;;;;;5011589;28;20218;-64
2022/06/10 12:08:47;;;;;;;4.93;2.88;;;18.80;99.90;;;;;;4979710;28;20225;-63
2022/06/10 12:11:37;;;;;;;4.50;2.60;;;18.90;99.90;;;;;;5004807;22;20234;-63
2022/06/10 12:16:32;;;;;;;3.45;2.88;;;20.20;99.90;;;;;;4988137;22;20229;-63
2022/06/10 12:19:06;;;;;;;8.20;2.90;;;18.90;99.90;;;;;;5010253;28;20762;-63
2022/06/10 12:21:33;;;;;;;5.82;3.00;;;18.90;99.90;;;;;;4973838;28;20234;-63
2022/06/10 12:24:00;;;;;;;7.20;3.08;;;18.70;99.90;;;;;;4991792;28;20226;-63
2022/06/10 12:26:37;;;;;;;6.60;3.33;;;18.90;99.90;;;;;;4977644;28;20317;-64
2022/06/10 12:29:14;;;;;;;6.63;2.53;;;18.70;99.90;;;;;;5007470;28;20221;-63
2022/06/10 12:31:51;;;;;;;11.15;3.17;;;18.80;99.90;;;;;;4991593;28;24050;-65
2022/06/10 12:34:25;;;;;;;5.22;2.80;;;19.00;99.90;;;;;;5001240;28;20272;-64
2022/06/10 12:36:56;;;;;;;6.65;3.45;;;19.00;99.90;;;;;;4987330;28;20698;-64
2022/06/10 12:39:28;;;;;;;9.45;3.20;;;19.20;99.90;;;;;;4983816;28;20226;-63
2022/06/10 12:42:07;;;;;;;9.68;3.22;;;19.30;99.90;;;;;;4977488;28;20226;-64
2022/06/10 12:44:37;;;;;;;6.20;3.40;;;19.40;99.90;;;;;;5003464;28;20220;-64
2022/06/10 12:47:08;;;;;;;5.82;3.45;;;19.40;99.90;;;;;;4990011;28;20295;-64
2022/06/10 12:49:40;;;;;;;7.40;3.20;;;19.40;99.90;;;;;;4999690;28;20234;-64
2022/06/10 12:52:27;;;;;;;10.50;3.47;;;19.60;99.90;;;;;;4989476;28;20210;-64
2022/06/10 12:54:59;;;;;;;8.38;3.58;;;19.40;99.90;;;;;;4990774;28;20218;-63
2022/06/10 12:57:36;;;;;;;11.63;3.50;;;19.50;99.90;;;;;;4972756;28;20218;-64
2022/06/10 13:00:35;;;;;;;6.97;3.40;;;19.50;99.90;;;;;;4998025;28;20197;-64
2022/06/10 13:03:24;;;;;;;6.10;3.33;;;19.60;99.90;;;;;;4988671;28;20256;-64
2022/06/10 13:05:51;;;;;;;5.57;2.80;;;19.50;99.90;;;;;;4997887;28;20237;-64
2022/06/10 13:08:48;;;;;;;7.47;3.33;;;19.50;99.90;;;;;;4983968;28;20264;-64
2022/06/10 13:11:39;;;;;;;5.50;3.08;;;19.50;99.90;;;;;;4985552;28;22046;-64
2022/06/10 13:14:23;;;;;;;7.30;3.53;;;19.50;99.90;;;;;;4978996;28;20206;-64
2022/06/10 13:17:19;;;;;;;6.03;3.47;;;19.80;99.90;;;;;;4988449;28;20245;-64
2022/06/10 13:20:26;;;;;;;7.78;3.25;;;19.60;99.90;;;;;;4984801;28;20352;-64
2022/06/10 13:23:15;;;;;;;10.77;3.65;;;18.10;99.90;;;;;;4977328;28;20202;-64
2022/06/10 13:25:46;;;;;;;8.30;3.10;;;19.80;99.90;;;;;;4998891;28;20199;-64
2022/06/10 13:28:26;;;;;;;8.02;3.20;;;19.90;99.90;;;;;;4958416;28;20237;-64